Welcome to Northern Hawkes Bay. New Zealand.
PWS Header
      nz Flag



Hit Counter


W3C Valid W3C Valid logo


    Wairoa

Select any of the Stations below to visit their websites.










Historic Data from Weather Underground
Select the location of interest below. Wairoa is the default. Please have patience, this Data is slow to load in.
Northern Hawkes Bay Historical Data
Daily Summary for April 17, 2018 Units:  English    Metric   Both
« Previous Day
Next Day »
Daily Weekly Monthly Yearly Custom
  High: Low: Average:
Temperature: 78.6 °F 53.4 °F 66.7 °F
Dew Point: 62.1 °F 47.7 °F 54.7 °F
Humidity: 89% 44% 67%
Wind Speed: 13.6mph 0mph 3.8mph
Wind Gust: 22.8mph - -
Wind- - West
Pressure: 29.8 in 29.7 in -
Precipitation: 0 in    
Historical Graphs
 
 
Tabular Data for April 17, 2018
Time Temperature Dew Point Pressure Wind Wind Speed Wind Gust Humidity Rainfall Rate (Hourly) solar
00:01 58.1 °F 52 °F 29.7 in ENE 3.1 mph 5.4 mph 80% 0 in 0 W/m2
00:06 58.3 °F 51.8 °F 29.7 in ENE 3.1 mph 5.4 mph 79% 0 in 0 W/m2
00:11 59 °F 51.4 °F 29.7 in Calm   4.5 mph 76% 0 in 0 W/m2
00:16 59.4 °F 51.1 °F 29.7 in NNE 3.8 mph 6 mph 74% 0 in 0 W/m2
00:21 60.1 °F 50.7 °F 29.7 in NNW 5.4 mph 7.6 mph 71% 0 in 0 W/m2
00:26 60.4 °F 49.8 °F 29.7 in NW 6 mph 9.8 mph 68% 0 in 0 W/m2
00:31 60.8 °F 48.9 °F 29.7 in NW 6 mph 10.7 mph 65% 0 in 0 W/m2
00:36 61.2 °F 48.9 °F 29.7 in NNW 3.1 mph 10.7 mph 64% 0 in 0 W/m2
00:41 61.3 °F 49.1 °F 29.7 in NNW 3.1 mph 9.8 mph 64% 0 in 0 W/m2
00:46 61.2 °F 48.9 °F 29.7 in NNW 4.5 mph 9.8 mph 64% 0 in 0 W/m2
00:51 61 °F 48.7 °F 29.7 in North 1.6 mph 9.8 mph 64% 0 in 0 W/m2
00:56 60.8 °F 48.6 °F 29.7 in NNW 3.1 mph 9.2 mph 64% 0 in 0 W/m2
01:01 60.6 °F 48.7 °F 29.7 in NNW 3.1 mph 6 mph 65% 0 in 0 W/m2
01:06 60.3 °F 48.9 °F 29.7 in NNW 5.4 mph 9.2 mph 66% 0 in 0 W/m2
01:11 60.3 °F 48.9 °F 29.7 in NNW 3.8 mph 9.2 mph 66% 0 in 0 W/m2
01:16 60.4 °F 48.9 °F 29.7 in NNW 5.4 mph 9.8 mph 66% 0 in 0 W/m2
01:21 60.8 °F 48.6 °F 29.7 in NNW 4.5 mph 11.4 mph 64% 0 in 0 W/m2
01:26 60.8 °F 48 °F 29.7 in NNW 6 mph 11.4 mph 63% 0 in 0 W/m2
01:31 60.6 °F 48.4 °F 29.8 in NNW 6 mph 9.8 mph 64% 0 in 0 W/m2
01:36 60.6 °F 48.4 °F 29.8 in NNW 3.8 mph 9.8 mph 64% 0 in 0 W/m2
01:41 60.6 °F 48.4 °F 29.8 in North 6.9 mph 10.7 mph 64% 0 in 0 W/m2
01:46 60.8 °F 47.7 °F 29.8 in NNW 10.7 mph 15.2 mph 62% 0 in 0 W/m2
01:51 60.8 °F 47.7 °F 29.8 in NNW 11.4 mph 15.2 mph 62% 0 in 0 W/m2
01:56 61 °F 48.4 °F 29.8 in NW 6.9 mph 16.8 mph 63% 0 in 0 W/m2
02:01 60.8 °F 48 °F 29.8 in NW 9.2 mph 16.8 mph 63% 0 in 0 W/m2
02:06 60.6 °F 48.7 °F 29.8 in NNW 6 mph 13 mph 65% 0 in 0 W/m2
02:11 60.6 °F 48.7 °F 29.8 in North 6 mph 12.1 mph 65% 0 in 0 W/m2
02:16 60.4 °F 48.9 °F 29.7 in NNW 4.5 mph 10.7 mph 66% 0 in 0 W/m2
02:21 60.1 °F 49.1 °F 29.7 in NW 7.6 mph 13 mph 67% 0 in 0 W/m2
02:26 60.3 °F 49.3 °F 29.7 in NNW 9.2 mph 13 mph 67% 0 in 0 W/m2
02:31 59.9 °F 49.3 °F 29.7 in NNW 4.5 mph 12.1 mph 68% 0 in 0 W/m2
02:36 59.7 °F 49.5 °F 29.8 in North 3.8 mph 12.1 mph 69% 0 in 0 W/m2
02:41 59.7 °F 49.5 °F 29.7 in North 3.1 mph 9.2 mph 69% 0 in 0 W/m2
02:46 59.9 °F 49.6 °F 29.7 in North 2.2 mph 9.2 mph 69% 0 in 0 W/m2
02:51 59.7 °F 49.5 °F 29.8 in North 0.7 mph 6.9 mph 69% 0 in 0 W/m2
02:56 59.5 °F 49.8 °F 29.7 in NNE 3.1 mph 7.6 mph 70% 0 in 0 W/m2
03:01 59.4 °F 49.6 °F 29.7 in North 3.8 mph 7.6 mph 70% 0 in 0 W/m2
03:06 59.2 °F 49.8 °F 29.7 in North 4.5 mph 8.3 mph 71% 0 in 0 W/m2
03:11 59 °F 50 °F 29.7 in North 3.8 mph 8.3 mph 72% 0 in 0 W/m2
03:16 59.4 °F 50.4 °F 29.7 in North 3.1 mph 8.3 mph 72% 0 in 0 W/m2
03:21 59.2 °F 50.2 °F 29.7 in Calm   8.3 mph 72% 0 in 0 W/m2
03:26 59.2 °F 50.5 °F 29.7 in North 2.2 mph 5.4 mph 73% 0 in 0 W/m2
03:31 59.2 °F 50.5 °F 29.7 in NNW 4.5 mph 6 mph 73% 0 in 0 W/m2
03:36 59.4 °F 50.7 °F 29.7 in NNW 3.8 mph 8.3 mph 73% 0 in 0 W/m2
03:41 59.4 °F 50.7 °F 29.7 in NNW 3.8 mph 9.2 mph 73% 0 in 0 W/m2
03:46 59.4 °F 50.7 °F 29.7 in NNW 2.2 mph 9.2 mph 73% 0 in 0 W/m2
03:51 59.4 °F 50.7 °F 29.7 in Calm   9.2 mph 73% 0 in 0 W/m2
03:56 59 °F 50.4 °F 29.7 in Calm   8.3 mph 73% 0 in 0 W/m2
04:01 58.8 °F 50.9 °F 29.7 in Calm   2.2 mph 75% 0 in 0 W/m2
04:06 58.8 °F 50.9 °F 29.7 in Calm   2.2 mph 75% 0 in 0 W/m2
04:11 58.5 °F 50.5 °F 29.7 in Calm   0.7 mph 75% 0 in 0 W/m2
04:16 58.1 °F 50.2 °F 29.7 in Calm   0.7 mph 75% 0 in 0 W/m2
04:21 57.7 °F 50.2 °F 29.7 in Calm   0.7 mph 76% 0 in 0 W/m2
04:26 57.4 °F 49.8 °F 29.7 in Calm     76% 0 in 0 W/m2
04:31 56.7 °F 49.5 °F 29.7 in Calm     77% 0 in 0 W/m2
04:36 56.5 °F 49.6 °F 29.7 in Calm   0.7 mph 78% 0 in 0 W/m2
04:41 56.5 °F 50.2 °F 29.7 in Calm   0.7 mph 79% 0 in 0 W/m2
04:46 56.1 °F 50 °F 29.7 in Calm     80% 0 in 0 W/m2
04:51 56.1 °F 50 °F 29.7 in Calm     80% 0 in 0 W/m2
04:56 56.1 °F 50 °F 29.7 in Calm     80% 0 in 0 W/m2
05:01 56.1 °F 50.4 °F 29.7 in Calm   1.6 mph 81% 0 in 0 W/m2
05:06 56.1 °F 50.7 °F 29.7 in Calm   1.6 mph 82% 0 in 0 W/m2
05:11 56.5 °F 51.1 °F 29.7 in ENE 0.7 mph 4.5 mph 82% 0 in 0 W/m2
05:16 57.2 °F 51.4 °F 29.7 in Calm   4.5 mph 81% 0 in 0 W/m2
05:21 57.4 °F 51.3 °F 29.7 in Calm   3.1 mph 80% 0 in 0 W/m2
05:26 57.2 °F 50.7 °F 29.7 in Calm   3.1 mph 79% 0 in 0 W/m2
05:31 56.5 °F 50.4 °F 29.7 in Calm   0.7 mph 80% 0 in 0 W/m2
05:36 56.1 °F 50 °F 29.7 in Calm   0.7 mph 80% 0 in 0 W/m2
05:41 55.8 °F 50 °F 29.7 in Calm   0.7 mph 81% 0 in 0 W/m2
05:46 55.4 °F 49.6 °F 29.7 in NW 1.6 mph 2.2 mph 81% 0 in 0 W/m2
05:51 54.7 °F 49.3 °F 29.7 in WNW 0.7 mph 4.5 mph 82% 0 in 0 W/m2
05:56 54.7 °F 49.6 °F 29.7 in WNW 0.7 mph 4.5 mph 83% 0 in 0 W/m2
06:01 55 °F 50 °F 29.7 in NW 2.2 mph 4.5 mph 83% 0 in 0 W/m2
06:06 55.2 °F 50.2 °F 29.7 in NW 3.1 mph 4.5 mph 83% 0 in 0 W/m2
06:11 55.4 °F 50.7 °F 29.7 in NW 3.1 mph 4.5 mph 84% 0 in 0 W/m2
06:16 55.4 °F 50.7 °F 29.7 in Calm   4.5 mph 84% 0 in 0 W/m2
06:21 54.9 °F 49.8 °F 29.7 in Calm   3.8 mph 83% 0 in 0 W/m2
06:26 54.7 °F 49.6 °F 29.7 in Calm     83% 0 in 0 W/m2
06:31 54.7 °F 49.8 °F 29.7 in Calm   1.6 mph 84% 0 in 0 W/m2
06:36 54.5 °F 49.8 °F 29.7 in Calm   1.6 mph 84% 0 in 0 W/m2
06:41 54.1 °F 49.5 °F 29.7 in Calm   0.7 mph 84% 0 in 2 W/m2
06:46 53.8 °F 49.1 °F 29.7 in Calm     84% 0 in 4 W/m2
06:51 53.4 °F 48.9 °F 29.7 in Calm     85% 0 in 7 W/m2
06:56 53.6 °F 49.3 °F 29.7 in Calm   0.7 mph 85% 0 in 11 W/m2
07:01 54 °F 49.8 °F 29.7 in ENE 1.6 mph 6 mph 86% 0 in 17 W/m2
07:06 55.6 °F 51.4 °F 29.7 in ENE 3.1 mph 6 mph 86% 0 in 56 W/m2
07:11 57.4 °F 52.5 °F 29.7 in Calm   5.4 mph 84% 0 in 70 W/m2
07:16 59 °F 52.9 °F 29.7 in Calm   4.5 mph 80% 0 in 83 W/m2
07:21 59.4 °F 52.2 °F 29.7 in Calm   3.1 mph 77% 0 in 94 W/m2
07:26 58.8 °F 51.6 °F 29.7 in NW 1.6 mph 3.8 mph 77% 0 in 105 W/m2
07:31 58.3 °F 51.4 °F 29.7 in NW 3.8 mph 4.5 mph 78% 0 in 115 W/m2
07:36 57.9 °F 51.8 °F 29.7 in NW 3.8 mph 6 mph 80% 0 in 125 W/m2
07:41 57.7 °F 51.6 °F 29.7 in NW 3.1 mph 7.6 mph 80% 0 in 136 W/m2
07:46 57.9 °F 52.2 °F 29.7 in NW 3.1 mph 8.3 mph 81% 0 in 147 W/m2
07:51 58.5 °F 52.7 °F 29.7 in NW 1.6 mph 8.3 mph 81% 0 in 157 W/m2
07:56 59.4 °F 52.9 °F 29.7 in Calm   5.4 mph 79% 0 in 167 W/m2
08:01 60.4 °F 54 °F 29.7 in Calm   3.8 mph 79% 0 in 179 W/m2
08:06 61.3 °F 53.8 °F 29.8 in Calm   3.8 mph 76% 0 in 191 W/m2
08:11 63 °F 54.7 °F 29.8 in Calm   3.8 mph 74% 0 in 202 W/m2
08:16 64.6 °F 55.8 °F 29.8 in Calm   1.6 mph 73% 0 in 216 W/m2
08:21 66.2 °F 55.2 °F 29.8 in Calm   1.6 mph 68% 0 in 232 W/m2
08:26 66.7 °F 55 °F 29.8 in Calm   1.6 mph 66% 0 in 243 W/m2
08:31 67.5 °F 55.8 °F 29.8 in Calm   1.6 mph 66% 0 in 257 W/m2
08:36 69.3 °F 56.7 °F 29.8 in Calm     64% 0 in 271 W/m2
08:41 71.1 °F 57.4 °F 29.8 in Calm   0.7 mph 62% 0 in 284 W/m2
08:46 72.1 °F 55.6 °F 29.8 in Calm   0.7 mph 56% 0 in 293 W/m2
08:51 72.7 °F 54.7 °F 29.8 in NE 0.7 mph 3.1 mph 53% 0 in 302 W/m2
08:54 72.7 °F 54.7 °F 29.8 in NNE 0.7 mph 4.5 mph 53% 0 in 305 W/m2
08:59 72.3 °F 53.8 °F 29.8 in NNE 1.6 mph 6 mph 52% 0 in 311 W/m2
09:04 71.8 °F 53.2 °F 29.8 in NNE 2.2 mph 6 mph 52% 0 in 316 W/m2
09:09 71.4 °F 54 °F 29.8 in Calm   4.5 mph 54% 0 in 320 W/m2
09:14 72.7 °F 54.7 °F 29.8 in NNE 1.6 mph 4.5 mph 53% 0 in 325 W/m2
09:19 73.2 °F 54.7 °F 29.8 in Calm   4.5 mph 52% 0 in 330 W/m2
09:24 73 °F 54 °F 29.8 in North 2.2 mph 4.5 mph 51% 0 in 330 W/m2
09:43 73.2 °F 55 °F 29.8 in North 2.2 mph 8.3 mph 53% 0 in 79 W/m2
09:48 73 °F 54.3 °F 29.8 in North 6 mph 10.7 mph 52% 0 in 71 W/m2
09:53 72.3 °F 54.3 °F 29.8 in NNW 3.1 mph 10.7 mph 53% 0 in 64 W/m2
09:58 72.7 °F 54.7 °F 29.8 in NNW 4.5 mph 10.7 mph 53% 0 in 61 W/m2
10:03 73.2 °F 55 °F 29.8 in NNW 3.1 mph 9.8 mph 53% 0 in 60 W/m2
10:08 73 °F 54.9 °F 29.8 in NNW 7.6 mph 13.6 mph 53% 0 in 58 W/m2
10:13 72.7 °F 54.7 °F 29.8 in NW 6 mph 15.2 mph 53% 0 in 58 W/m2
10:18 72.3 °F 54.9 °F 29.7 in NW 6 mph 17.4 mph 54% 0 in 59 W/m2
10:23 72.7 °F 55 °F 29.7 in NW 6 mph 17.4 mph 54% 0 in 63 W/m2
10:28 73 °F 55.9 °F 29.8 in NW 8.3 mph 13.6 mph 55% 0 in 67 W/m2
10:33 73 °F 55.4 °F 29.8 in NNW 4.5 mph 12.1 mph 54% 0 in 97 W/m2
10:38 73.6 °F 55.9 °F 29.8 in NW 12.1 mph 14.5 mph 54% 0 in 322 W/m2
10:43 73 °F 55.4 °F 29.8 in NW 6.9 mph 14.5 mph 54% 0 in 357 W/m2
10:48 72.9 °F 55.2 °F 29.7 in NNW 7.6 mph 15.2 mph 54% 0 in 352 W/m2
10:53 73.2 °F 55.6 °F 29.8 in NNW 3.8 mph 15.2 mph 54% 0 in 120 W/m2
10:58 73.9 °F 56.8 °F 29.7 in North 5.4 mph 10.7 mph 55% 0 in 145 W/m2
11:03 73.8 °F 55 °F 29.7 in North 6.9 mph 11.4 mph 52% 0 in 390 W/m2
11:08 73.6 °F 54.9 °F 29.7 in NNW 6.9 mph 12.1 mph 52% 0 in 380 W/m2
11:13 73.4 °F 54.7 °F 29.7 in NNW 7.6 mph 13.6 mph 52% 0 in 397 W/m2
11:18 73.4 °F 54.1 °F 29.7 in NNW 5.4 mph 13.6 mph 51% 0 in 398 W/m2
11:23 73.8 °F 54.5 °F 29.7 in NNW 8.3 mph 15.2 mph 51% 0 in 401 W/m2
11:28 74.1 °F 55.4 °F 29.7 in NNW 6.9 mph 15.2 mph 52% 0 in 408 W/m2
11:33 74.5 °F 54.1 °F 29.7 in NNW 4.5 mph 15.2 mph 49% 0 in 409 W/m2
11:38 74.8 °F 55 °F 29.7 in NNW 9.2 mph 15.2 mph 50% 0 in 411 W/m2
11:43 75.2 °F 55.2 °F 29.7 in NNW 9.2 mph 14.5 mph 50% 0 in 417 W/m2
11:48 75.2 °F 54.1 °F 29.7 in NNW 7.6 mph 16.8 mph 48% 0 in 419 W/m2
11:53 75.2 °F 54.1 °F 29.7 in NNW 7.6 mph 16.8 mph 48% 0 in 421 W/m2
11:58 75.2 °F 54.1 °F 29.7 in NNW 12.1 mph 19 mph 48% 0 in 416 W/m2
12:03 75 °F 54 °F 29.7 in NNW 12.1 mph 19.7 mph 48% 0 in 411 W/m2
12:08 75.2 °F 54.1 °F 29.7 in NW 9.2 mph 19.7 mph 48% 0 in 415 W/m2
12:13 75.2 °F 54.9 °F 29.7 in NW 8.3 mph 18.3 mph 49% 0 in 416 W/m2
12:18 75.2 °F 54.1 °F 29.7 in NW 13 mph 19.7 mph 48% 0 in 413 W/m2
12:23 75.9 °F 55.4 °F 29.7 in NW 9.2 mph 19.7 mph 49% 0 in 413 W/m2
12:28 75.9 °F 54.9 °F 29.7 in NW 7.6 mph 19.7 mph 48% 0 in 413 W/m2
12:33 75.9 °F 55.4 °F 29.7 in NW 5.4 mph 19.7 mph 49% 0 in 411 W/m2
12:38 76.5 °F 55.9 °F 29.7 in NW 7.6 mph 16.8 mph 49% 0 in 408 W/m2
12:43 76.6 °F 55.6 °F 29.7 in NW 6 mph 13 mph 48% 0 in 407 W/m2
12:48 76.6 °F 55.6 °F 29.7 in NNW 5.4 mph 13.6 mph 48% 0 in 404 W/m2
12:53 77 °F 55.2 °F 29.7 in NW 7.6 mph 13.6 mph 47% 0 in 405 W/m2
12:58 77.2 °F 55.4 °F 29.7 in WNW 7.6 mph 13.6 mph 47% 0 in 419 W/m2
13:03 77.4 °F 55 °F 29.7 in NW 6.9 mph 13.6 mph 46% 0 in 399 W/m2
13:08 77.2 °F 54.1 °F 29.7 in NW 9.2 mph 14.5 mph 45% 0 in 366 W/m2
13:13 77.2 °F 54.9 °F 29.7 in NW 8.3 mph 14.5 mph 46% 0 in 339 W/m2
13:18 77 °F 54.7 °F 29.7 in NW 11.4 mph 18.3 mph 46% 0 in 198 W/m2
13:23 75.9 °F 53.8 °F 29.7 in NW 6.9 mph 18.3 mph 46% 0 in 402 W/m2
13:28 77 °F 55.2 °F 29.7 in NNW 11.4 mph 18.3 mph 47% 0 in 255 W/m2
13:47 77.7 °F 54.7 °F 29.7 in NW 6.9 mph 15.9 mph 45% 0 in 269 W/m2
13:52 77.5 °F 54.7 °F 29.7 in NW 8.3 mph 18.3 mph 45% 0 in 305 W/m2
13:57 77.7 °F 54.7 °F 29.7 in NW 6.9 mph 19 mph 45% 0 in 286 W/m2
14:02 77.7 °F 54.7 °F 29.7 in NW 13 mph 19.7 mph 45% 0 in 285 W/m2
14:07 77.9 °F 55.6 °F 29.7 in NNW 9.2 mph 19.7 mph 46% 0 in 273 W/m2
14:12 77.9 °F 54.9 °F 29.7 in North 6 mph 16.8 mph 45% 0 in 232 W/m2
14:17 78.6 °F 55.6 °F 29.7 in NNW 12.1 mph 16.8 mph 45% 0 in 176 W/m2
14:22 78.6 °F 55.6 °F 29.7 in NW 7.6 mph 15.2 mph 45% 0 in 232 W/m2
14:27 77.7 °F 54.7 °F 29.7 in NNW 6.9 mph 18.3 mph 45% 0 in 156 W/m2
14:32 78.1 °F 55 °F 29.7 in NNW 3.1 mph 18.3 mph 45% 0 in 154 W/m2
14:37 77.7 °F 54.1 °F 29.7 in NNW 12.1 mph 22.8 mph 44% 0 in 128 W/m2
14:42 76.3 °F 55.2 °F 29.7 in NW 9.8 mph 22.8 mph 48% 0 in 133 W/m2
14:47 75.4 °F 53.8 °F 29.7 in NW 9.2 mph 17.4 mph 47% 0 in 124 W/m2
14:52 76.3 °F 55.8 °F 29.7 in NW 11.4 mph 15.9 mph 49% 0 in 119 W/m2
14:57 77.2 °F 55.9 °F 29.7 in NNW 7.6 mph 18.3 mph 48% 0 in 110 W/m2
15:02 77.7 °F 55.9 °F 29.7 in NW 9.8 mph 18.3 mph 47% 0 in 117 W/m2
15:07 77.9 °F 56.1 °F 29.7 in NNW 6.9 mph 15.9 mph 47% 0 in 193 W/m2
15:12 77 °F 55.8 °F 29.7 in NNW 6 mph 15.2 mph 48% 0 in 188 W/m2
15:17 75.4 °F 55.6 °F 29.7 in North 3.8 mph 15.2 mph 50% 0 in 81 W/m2
15:22 74.3 °F 56.7 °F 29.7 in North 7.6 mph 15.2 mph 54% 0 in 74 W/m2
15:27 73.6 °F 56.8 °F 29.7 in NNW 3.1 mph 15.2 mph 56% 0 in 57 W/m2
15:32 72.7 °F 57 °F 29.7 in NNW 4.5 mph 10.7 mph 58% 0 in 55 W/m2
15:37 72.3 °F 57.2 °F 29.7 in NNW 4.5 mph 10.7 mph 59% 0 in 44 W/m2
15:42 72 °F 56.8 °F 29.7 in North 5.4 mph 9.2 mph 59% 0 in 41 W/m2
15:47 72 °F 57.4 °F 29.7 in NNE 1.6 mph 9.2 mph 60% 0 in 36 W/m2
15:52 71.6 °F 57.6 °F 29.7 in NNE 6 mph 9.2 mph 61% 0 in 28 W/m2
15:57 71.4 °F 57.7 °F 29.7 in North 2.2 mph 9.2 mph 62% 0 in 29 W/m2
16:02 71.1 °F 57.9 °F 29.7 in NNW 1.6 mph 9.2 mph 63% 0 in 34 W/m2
16:07 70.9 °F 58.1 °F 29.7 in NNW 2.2 mph 7.6 mph 64% 0 in 39 W/m2
16:12 70.7 °F 58.5 °F 29.7 in NNW 0.7 mph 6 mph 65% 0 in 36 W/m2
16:17 70.7 °F 57.9 °F 29.7 in North 3.8 mph 6 mph 64% 0 in 39 W/m2
16:22 70.7 °F 57.6 °F 29.7 in North 2.2 mph 6 mph 63% 0 in 37 W/m2
16:27 70.9 °F 57.7 °F 29.7 in North 0.7 mph 7.6 mph 63% 0 in 35 W/m2
16:32 70.9 °F 57.7 °F 29.7 in Calm   7.6 mph 63% 0 in 32 W/m2
16:37 70.9 °F 57.7 °F 29.7 in Calm   4.5 mph 63% 0 in 33 W/m2
16:42 70.7 °F 57.6 °F 29.7 in NE 0.7 mph 5.4 mph 63% 0 in 34 W/m2
16:47 71.2 °F 57.9 °F 29.7 in Calm   5.4 mph 63% 0 in 43 W/m2
16:52 72.7 °F 58.5 °F 29.7 in NNE 2.2 mph 4.5 mph 61% 0 in 35 W/m2
16:57 72.9 °F 58.3 °F 29.7 in NNE 3.8 mph 5.4 mph 60% 0 in 36 W/m2
17:02 73.4 °F 58.3 °F 29.7 in NE 2.2 mph 5.4 mph 59% 0 in 29 W/m2
17:07 73.9 °F 57.7 °F 29.7 in Calm   5.4 mph 57% 0 in 24 W/m2
17:12 73.9 °F 57.7 °F 29.7 in NE 3.1 mph 6 mph 57% 0 in 16 W/m2
17:17 72.7 °F 57.9 °F 29.7 in NNE 4.5 mph 7.6 mph 60% 0 in 18 W/m2
17:22 71.6 °F 57.6 °F 29.7 in North 2.2 mph 8.3 mph 61% 0 in 16 W/m2
17:27 71.1 °F 58.3 °F 29.7 in North 7.6 mph 12.1 mph 64% 0 in 9 W/m2
17:32 70.7 °F 57.9 °F 29.7 in NNW 8.3 mph 13 mph 64% 0 in 4 W/m2
17:37 70.7 °F 57.9 °F 29.7 in North 6.9 mph 13.6 mph 64% 0 in 1 W/m2
17:42 70.9 °F 57.7 °F 29.7 in North 6.9 mph 14.5 mph 63% 0 in 0 W/m2
17:47 70.9 °F 57.2 °F 29.7 in North 5.4 mph 15.2 mph 62% 0 in 0 W/m2
17:52 70.7 °F 57.6 °F 29.7 in North 6 mph 15.2 mph 63% 0 in 0 W/m2
17:57 70.5 °F 57.4 °F 29.7 in NNW 6.9 mph 14.5 mph 63% 0 in 0 W/m2
18:02 70.5 °F 57.4 °F 29.7 in NNW 3.1 mph 14.5 mph 63% 0 in 0 W/m2
18:07 70.5 °F 57.4 °F 29.7 in North 3.8 mph 13 mph 63% 0 in 0 W/m2
18:12 70.5 °F 57.4 °F 29.7 in North 4.5 mph 10.7 mph 63% 0 in 0 W/m2
18:17 70.5 °F 57.4 °F 29.7 in North 6 mph 13.6 mph 63% 0 in 0 W/m2
18:22 70.5 °F 57.4 °F 29.7 in NNW 7.6 mph 13.6 mph 63% 0 in 0 W/m2
18:27 70.5 °F 57.4 °F 29.7 in NW 3.1 mph 11.4 mph 63% 0 in 0 W/m2
18:32 70.2 °F 57 °F 29.7 in NNW 7.6 mph 11.4 mph 63% 0 in 0 W/m2
18:37 70.2 °F 57 °F 29.7 in North 4.5 mph 9.8 mph 63% 0 in 0 W/m2
18:42 70.2 °F 57 °F 29.7 in North 3.8 mph 9.8 mph 63% 0 in 0 W/m2
18:47 70.3 °F 57.6 °F 29.7 in North 3.1 mph 9.2 mph 64% 0 in 0 W/m2
18:52 70.2 °F 57.4 °F 29.7 in North 2.2 mph 6.9 mph 64% 0 in 0 W/m2
18:57 70 °F 57.4 °F 29.7 in Calm   6.9 mph 64% 0 in 0 W/m2
19:02 69.8 °F 57.6 °F 29.7 in North 3.8 mph 6.9 mph 65% 0 in 0 W/m2
19:07 69.6 °F 57.7 °F 29.7 in North 1.6 mph 6.9 mph 66% 0 in 0 W/m2
19:12 69.4 °F 57.9 °F 29.7 in North 1.6 mph 7.6 mph 67% 0 in 0 W/m2
19:17 69.8 °F 57.9 °F 29.7 in North 4.5 mph 10.7 mph 66% 0 in 0 W/m2
19:22 70.2 °F 58.3 °F 29.7 in North 6.9 mph 13 mph 66% 0 in 0 W/m2
19:27 70.7 °F 58.5 °F 29.7 in NNW 6.9 mph 15.9 mph 65% 0 in 0 W/m2
19:32 70.9 °F 58.6 °F 29.7 in NW 13.6 mph 19.7 mph 65% 0 in 0 W/m2
19:37 70.9 °F 58.6 °F 29.7 in NW 13 mph 21.3 mph 65% 0 in 0 W/m2
19:42 70.9 °F 58.6 °F 29.7 in NNW 8.3 mph 21.3 mph 65% 0 in 0 W/m2
19:47 70.7 °F 58.5 °F 29.7 in NNW 6.9 mph 21.3 mph 65% 0 in 0 W/m2
19:52 70.2 °F 58.3 °F 29.7 in NNW 6.9 mph 16.8 mph 66% 0 in 0 W/m2
19:57 69.8 °F 58.5 °F 29.7 in NNW 4.5 mph 13 mph 67% 0 in 0 W/m2
20:02 69.4 °F 58.8 °F 29.7 in NNW 3.8 mph 9.8 mph 69% 0 in 0 W/m2
20:07 69.1 °F 58.8 °F 29.7 in NW 4.5 mph 9.2 mph 70% 0 in 0 W/m2
20:12 68.5 °F 58.8 °F 29.7 in NW 3.8 mph 10.7 mph 71% 0 in 0 W/m2
20:17 68.5 °F 59.2 °F 29.7 in NNW 3.8 mph 10.7 mph 72% 0 in 0 W/m2
20:22 68.5 °F 59.5 °F 29.7 in NNW 9.2 mph 14.5 mph 73% 0 in 0 W/m2
20:27 68.5 °F 59.9 °F 29.7 in NNW 9.8 mph 19.7 mph 74% 0 in 0 W/m2
20:32 68.5 °F 60.6 °F 29.7 in NNW 8.3 mph 19.7 mph 76% 0 in 0 W/m2
20:37 68 °F 61 °F 29.7 in NW 5.4 mph 15.9 mph 78% 0 in 0 W/m2
20:42 67.5 °F 61.9 °F 29.7 in NNW 3.1 mph 12.1 mph 82% 0 in 0 W/m2
20:47 66.9 °F 62.1 °F 29.7 in NNW 2.2 mph 9.2 mph 84% 0 in 0 W/m2
20:52 66.7 °F 61.9 °F 29.7 in NNW 1.6 mph 6.9 mph 84% 0 in 0 W/m2
20:57 66.4 °F 61.9 °F 29.7 in Calm   6.9 mph 85% 0 in 0 W/m2
21:02 65.8 °F 61.5 °F 29.7 in North 1.6 mph 4.5 mph 86% 0 in 0 W/m2
21:07 65.5 °F 61.5 °F 29.7 in North 1.6 mph 4.5 mph 87% 0 in 0 W/m2
21:12 65.1 °F 61.5 °F 29.7 in North 1.6 mph 4.5 mph 88% 0 in 0 W/m2
21:17 64.8 °F 61.2 °F 29.7 in North 1.6 mph 4.5 mph 88% 0 in 0 W/m2
21:22 64.4 °F 61.2 °F 29.7 in NNW 0.7 mph 3.1 mph 89% 0 in 0 W/m2
21:27 64.2 °F 61 °F 29.7 in North 2.2 mph 4.5 mph 89% 0 in 0 W/m2
21:32 64.9 °F 61.5 °F 29.7 in North 2.2 mph 7.6 mph 89% 0 in 0 W/m2
21:37 65.7 °F 62.1 °F 29.7 in North 4.5 mph 9.8 mph 88% 0 in 0 W/m2
21:42 66 °F 62.1 °F 29.7 in North 2.2 mph 9.8 mph 87% 0 in 0 W/m2
21:47 66 °F 62.1 °F 29.7 in NNE 2.2 mph 9.2 mph 87% 0 in 0 W/m2
21:52 66.2 °F 61.9 °F 29.7 in Calm   9.2 mph 86% 0 in 0 W/m2
21:57 66 °F 62.1 °F 29.7 in North 1.6 mph 8.3 mph 87% 0 in 0 W/m2
22:02 65.8 °F 61.9 °F 29.7 in Calm   6 mph 87% 0 in 0 W/m2
22:07 65.8 °F 61.9 °F 29.7 in Calm   3.8 mph 87% 0 in 0 W/m2
22:17 65.5 °F 61.5 °F 29.7 in Calm   0.7 mph 87% 0 in 0 W/m2
22:22 65.3 °F 61.3 °F 29.7 in Calm   0.7 mph 87% 0 in 0 W/m2
22:27 65.1 °F 61.5 °F 29.7 in NW 1.6 mph 3.1 mph 88% 0 in 0 W/m2
22:32 64.8 °F 61.2 °F 29.7 in Calm   3.1 mph 88% 0 in 0 W/m2
22:37 64.4 °F 60.8 °F 29.7 in Calm   2.2 mph 88% 0 in 0 W/m2
22:42 64.2 °F 60.3 °F 29.7 in Calm   1.6 mph 87% 0 in 0 W/m2
22:47 64.6 °F 60.3 °F 29.7 in North 2.2 mph 3.8 mph 86% 0 in 0 W/m2
22:52 65.3 °F 60.4 °F 29.7 in North 1.6 mph 6 mph 84% 0 in 0 W/m2
22:57 65.8 °F 59.9 °F 29.7 in North 0.7 mph 6 mph 81% 0 in 0 W/m2
23:02 65.8 °F 59.2 °F 29.7 in Calm   5.4 mph 79% 0 in 0 W/m2
23:07 65.7 °F 59 °F 29.7 in Calm   3.8 mph 79% 0 in 0 W/m2
23:12 64.9 °F 59 °F 29.7 in Calm   2.2 mph 81% 0 in 0 W/m2
23:17 64.4 °F 59.2 °F 29.7 in Calm   2.2 mph 83% 0 in 0 W/m2
23:22 64 °F 59.2 °F 29.7 in Calm   2.2 mph 84% 0 in 0 W/m2
23:27 63.7 °F 58.8 °F 29.7 in Calm     84% 0 in 0 W/m2
23:32 63.1 °F 58.6 °F 29.7 in Calm     85% 0 in 0 W/m2
23:37 62.8 °F 58.5 °F 29.7 in Calm     86% 0 in 0 W/m2
23:42 62.6 °F 58.6 °F 29.7 in Calm     87% 0 in 0 W/m2
23:47 62.4 °F 59.2 °F 29.7 in Calm     89% 0 in 0 W/m2
23:52 62.2 °F 59 °F 29.7 in Calm     89% 0 in 0 W/m2
23:57 62.1 °F 58.8 °F 29.7 in Calm     89% 0 in 0 W/m2
Northern Hawkes Bay. New Zealand Historic Data
Compliments of Weather Underground - 2 mb